createdAt,value
2019-04-28T00:01:17.706Z,97369.78
2019-04-28T00:06:21.247Z,97360.69
2019-04-28T00:11:24.629Z,97359.05
2019-04-28T00:16:28.019Z,97345.51
2019-04-28T00:21:45.104Z,97346.52
2019-04-28T00:26:51.936Z,97339.15
2019-04-28T00:31:55.392Z,97335.34
2019-04-28T00:37:01.313Z,97344.88
2019-04-28T00:42:05.023Z,97337.77
2019-04-28T00:47:08.915Z,97332.25
2019-04-28T00:52:14.251Z,97343.03
2019-04-28T00:57:17.876Z,97348.45
2019-04-28T01:02:22.899Z,97348.77
2019-04-28T01:07:26.300Z,97342.13
2019-04-28T01:12:31.101Z,97334.73
2019-04-28T01:17:36.250Z,97339.49
2019-04-28T01:22:40.196Z,97348.81
2019-04-28T01:27:45.240Z,97351.93
2019-04-28T01:32:59.668Z,97361.94
2019-04-28T01:38:03.037Z,97383.22
2019-04-28T01:43:06.593Z,97388.13
2019-04-28T01:48:10.216Z,97389.06
2019-04-28T01:53:13.840Z,97401.59
2019-04-28T01:58:17.229Z,97410.06
2019-04-28T02:03:20.722Z,97413.14
2019-04-28T02:08:24.081Z,97414.66
2019-04-28T02:13:27.468Z,97414.11
2019-04-28T02:18:31.024Z,97412.44
2019-04-28T02:23:36.283Z,97420.52
2019-04-28T02:28:40.733Z,97423.52
2019-04-28T02:33:44.138Z,97425.64
2019-04-28T02:38:47.756Z,97421.03
2019-04-28T02:43:51.240Z,97416.35
2019-04-28T02:48:54.624Z,97411.30
2019-04-28T02:54:00.499Z,97417.14
2019-04-28T02:59:03.342Z,97421.47
2019-04-28T03:04:06.974Z,97431.87
2019-04-28T03:09:10.697Z,97413.20
2019-04-28T03:14:14.167Z,97414.72
2019-04-28T03:19:17.638Z,97419.19
2019-04-28T03:24:22.213Z,97423.17
2019-04-28T03:29:35.944Z,97426.73
2019-04-28T03:34:44.490Z,97424.26
2019-04-28T03:39:50.418Z,97423.07
2019-04-28T03:44:53.746Z,97420.27
2019-04-28T03:49:57.151Z,97417.96
2019-04-28T03:55:00.822Z,97415.69
2019-04-28T04:00:07.421Z,97410.73
2019-04-28T04:05:11.337Z,97420.45
2019-04-28T04:10:36.531Z,97421.31
2019-04-28T04:15:57.150Z,97420.23
2019-04-28T04:21:00.907Z,97421.36
2019-04-28T04:26:04.403Z,97419.91
2019-04-28T04:31:10.233Z,97418.72
2019-04-28T04:36:13.092Z,97416.67
2019-04-28T04:41:16.708Z,97404.98
2019-04-28T04:46:22.395Z,97404.98
2019-04-28T04:51:26.095Z,97405.45
2019-04-28T04:56:30.151Z,97404.22
2019-04-28T05:01:35.623Z,97406.86
2019-04-28T05:06:42.307Z,97407.22
2019-04-28T05:11:45.693Z,97397.10
2019-04-28T05:16:49.730Z,97397.67
2019-04-28T05:21:53.143Z,97401.03
2019-04-28T05:26:56.526Z,97388.14
2019-04-28T05:32:03.265Z,97370.27
2019-04-28T05:37:05.257Z,97366.27
2019-04-28T05:42:09.765Z,97372.41
2019-04-28T05:47:13.987Z,97384.85
2019-04-28T05:52:35.004Z,97402.07
2019-04-28T05:57:40.261Z,97408.11
2019-04-28T06:02:55.936Z,97410.66
2019-04-28T06:07:52.830Z,97415.67
2019-04-28T06:12:56.456Z,97416.05
2019-04-28T06:18:00.205Z,97414.39
2019-04-28T06:23:03.544Z,97421.06
2019-04-28T06:28:06.999Z,97425.16
2019-04-28T06:33:10.388Z,97423.61
2019-04-28T06:38:14.007Z,97427.28
2019-04-28T06:43:17.393Z,97428.62
2019-04-28T06:48:21.037Z,97429.33
2019-04-28T06:53:24.441Z,97429.84
2019-04-28T06:58:27.840Z,97420.20
2019-04-28T07:03:31.242Z,97429.19
2019-04-28T07:08:34.659Z,97436.47
2019-04-28T07:13:38.051Z,97444.73
2019-04-28T07:18:41.436Z,97444.12
2019-04-28T07:23:45.127Z,97442.94
2019-04-28T07:28:48.523Z,97436.42
2019-04-28T07:33:52.147Z,97432.41
2019-04-28T07:38:55.533Z,97429.18
2019-04-28T07:43:58.915Z,97419.31
2019-04-28T07:49:02.316Z,97426.75
2019-04-28T07:54:07.343Z,97441.21
2019-04-28T07:59:10.753Z,97432.53
2019-04-28T08:04:14.156Z,97436.80
2019-04-28T08:09:18.632Z,97434.39
2019-04-28T08:14:22.035Z,97439.27
2019-04-28T08:19:25.417Z,97448.70
2019-04-28T08:24:28.823Z,97447.32
2019-04-28T08:29:32.448Z,97429.72
2019-04-28T08:34:35.837Z,97427.23
2019-04-28T08:39:39.465Z,97424.77
2019-04-28T08:44:42.853Z,97416.98
2019-04-28T08:49:46.714Z,97414.42
2019-04-28T08:54:50.110Z,97426.15
2019-04-28T08:59:53.501Z,97431.06
2019-04-28T09:04:56.893Z,97417.13
2019-04-28T09:10:00.358Z,97429.09
2019-04-28T09:15:04.986Z,97426.50
2019-04-28T09:20:08.715Z,97433.02
2019-04-28T09:25:12.100Z,97436.47
2019-04-28T09:30:15.761Z,97434.92
2019-04-28T09:35:19.155Z,97430.58
2019-04-28T09:40:22.543Z,97430.49
2019-04-28T09:45:36.412Z,97433.41
2019-04-28T09:50:39.800Z,97430.05
2019-04-28T09:55:43.191Z,97421.08
2019-04-28T10:00:46.577Z,97410.94
2019-04-28T10:05:50.209Z,97402.88
2019-04-28T10:10:53.595Z,97402.39
2019-04-28T10:15:57.226Z,97406.80
2019-04-28T10:21:00.615Z,97408.72
2019-04-28T10:26:04.084Z,97410.35
2019-04-28T10:31:08.343Z,97412.81
2019-04-28T10:36:12.470Z,97409.24
2019-04-28T10:41:20.161Z,97411.16
2019-04-28T10:46:23.798Z,97405.67
2019-04-28T10:51:27.189Z,97398.83
2019-04-28T10:56:30.835Z,97408.71
2019-04-28T11:01:34.246Z,97397.74
2019-04-28T11:06:37.868Z,97395.28
2019-04-28T11:11:41.340Z,97396.91
2019-04-28T11:16:45.312Z,97377.96
2019-04-28T11:21:48.716Z,97370.83
2019-04-28T11:26:52.115Z,97376.02
2019-04-28T11:31:55.509Z,97364.80
2019-04-28T11:36:58.896Z,97366.44
2019-04-28T11:42:02.296Z,97360.69
2019-04-28T11:47:07.633Z,97370.50
2019-04-28T11:52:11.282Z,97354.44
2019-04-28T11:57:14.673Z,97346.14
2019-04-28T12:02:18.080Z,97342.13
2019-04-28T12:07:21.554Z,97350.95
2019-04-28T12:12:35.469Z,97360.33
2019-04-28T12:18:04.242Z,97362.02
2019-04-28T12:23:09.771Z,97355.20
2019-04-28T12:28:12.928Z,97351.07
2019-04-28T12:33:16.349Z,97354.09
2019-04-28T12:38:19.743Z,97344.47
2019-04-28T12:43:23.368Z,97353.17
2019-04-28T12:48:26.757Z,97351.05
2019-04-28T12:53:30.497Z,97345.27
2019-04-28T12:58:34.129Z,97353.46
2019-04-28T13:03:45.096Z,97352.09
2019-04-28T13:08:48.485Z,97335.84
2019-04-28T13:13:52.115Z,97336.36
2019-04-28T13:18:55.499Z,97326.48
2019-04-28T13:23:58.894Z,97319.84
2019-04-28T13:29:02.292Z,97317.97
2019-04-28T13:34:07.333Z,97319.72
2019-04-28T13:39:12.419Z,97320.20
2019-04-28T13:44:17.445Z,97310.86
2019-04-28T13:49:22.500Z,97304.03
2019-04-28T13:54:25.877Z,97309.73
2019-04-28T13:59:29.269Z,97302.91
2019-04-28T14:04:40.285Z,97297.11
2019-04-28T14:09:43.701Z,97290.35
2019-04-28T14:14:47.052Z,97286.84
2019-04-28T14:19:50.466Z,97288.99
2019-04-28T14:24:53.871Z,97280.89
2019-04-28T14:29:57.221Z,97287.80
2019-04-28T14:35:00.653Z,97288.06
2019-04-28T14:40:06.221Z,97279.33
2019-04-28T14:45:10.031Z,97282.34
2019-04-28T14:50:13.520Z,97276.86
2019-04-28T14:55:17.317Z,97268.85
2019-04-28T15:00:37.546Z,97266.05
2019-04-28T15:05:42.875Z,97269.06
2019-04-28T15:10:51.167Z,97273.13
2019-04-28T15:15:54.545Z,97268.48
2019-04-28T15:20:57.945Z,97271.87
2019-04-28T15:26:01.340Z,97271.08
2019-04-28T15:31:04.764Z,97270.46
2019-04-28T15:36:08.421Z,97259.44
2019-04-28T15:41:21.397Z,97259.44
2019-04-28T15:46:17.232Z,97262.09
2019-04-28T15:51:20.632Z,97472.13
2019-04-28T15:56:25.970Z,97261.72
2019-04-28T16:01:29.379Z,97271.38
2019-04-28T16:06:33.047Z,97264.78
2019-04-28T16:11:36.473Z,97270.44
2019-04-28T16:16:39.906Z,97268.83
2019-04-28T16:21:43.283Z,97269.39
2019-04-28T16:26:46.680Z,97269.80
2019-04-28T16:31:50.086Z,97279.17
2019-04-28T16:36:53.513Z,97275.59
2019-04-28T16:41:56.927Z,97272.03
2019-04-28T16:47:00.348Z,97280.53
2019-04-28T16:52:03.749Z,97278.36
2019-04-28T16:57:08.806Z,97273.70
2019-04-28T17:02:16.742Z,97281.09
2019-04-28T17:07:20.252Z,97282.19
2019-04-28T17:12:23.648Z,97288.20
2019-04-28T17:17:27.045Z,97295.89
2019-04-28T17:22:30.458Z,97302.47
2019-04-28T17:27:33.865Z,97308.50
2019-04-28T17:32:37.340Z,97300.29
2019-04-28T17:37:40.812Z,97306.06
2019-04-28T17:42:44.202Z,97304.41
2019-04-28T17:47:48.414Z,97299.75
2019-04-28T17:52:51.885Z,97301.66
2019-04-28T17:57:55.268Z,97298.94
2019-04-28T18:03:16.490Z,97309.08
2019-04-28T18:08:21.376Z,97307.16
2019-04-28T18:13:24.908Z,97323.63
2019-04-28T18:18:35.627Z,97324.33
2019-04-28T18:23:39.019Z,97337.35
2019-04-28T18:28:42.450Z,97338.98
2019-04-28T18:33:47.720Z,97342.27
2019-04-28T18:38:52.774Z,97356.50
2019-04-28T18:44:03.635Z,97358.39
2019-04-28T18:49:07.014Z,97372.23
2019-04-28T18:54:10.450Z,97385.97
2019-04-28T18:59:13.841Z,97393.39
2019-04-28T19:04:17.403Z,97408.11
2019-04-28T19:09:25.328Z,97418.27
2019-04-28T19:14:30.358Z,97423.19
2019-04-28T19:19:35.412Z,97429.53
2019-04-28T19:24:38.780Z,97432.83
2019-04-28T19:29:42.422Z,97437.20
2019-04-28T19:34:45.824Z,97435.94
2019-04-28T19:39:49.300Z,97442.70
2019-04-28T19:44:52.686Z,97438.45
2019-04-28T19:49:56.067Z,97437.86
2019-04-28T19:55:10.148Z,97446.17
2019-04-28T20:00:25.283Z,97440.71
2019-04-28T20:05:28.672Z,97447.16
2019-04-28T20:10:32.200Z,97444.92
2019-04-28T20:15:35.585Z,97445.39
2019-04-28T20:20:38.971Z,97443.94
2019-04-28T20:25:42.356Z,97448.41
2019-04-28T20:30:45.791Z,97452.05
2019-04-28T20:36:05.696Z,97458.09
2019-04-28T20:41:13.213Z,97463.84
2019-04-28T20:46:16.604Z,97463.56
2019-04-28T20:51:20.224Z,97462.08
2019-04-28T20:56:23.621Z,97467.06
2019-04-28T21:01:27.240Z,97462.55
2019-04-28T21:06:30.632Z,97473.64
2019-04-28T21:11:34.022Z,97473.73
2019-04-28T21:16:37.410Z,97474.69
2019-04-28T21:21:40.796Z,97481.69
2019-04-28T21:26:44.181Z,97487.62
2019-04-28T21:31:47.804Z,97482.20
2019-04-28T21:36:51.188Z,97486.92
2019-04-28T21:41:55.544Z,97490.70
2019-04-28T21:47:16.560Z,97487.90
2019-04-28T21:52:19.943Z,97480.09
2019-04-28T21:57:23.332Z,97479.89
2019-04-28T22:02:26.720Z,97471.80
2019-04-28T22:07:30.107Z,97469.30
2019-04-28T22:12:34.378Z,97475.42
2019-04-28T22:17:37.768Z,97472.70
2019-04-28T22:22:41.149Z,97472.91
2019-04-28T22:27:44.533Z,97471.63
2019-04-28T22:32:47.921Z,97473.20
2019-04-28T22:37:51.307Z,97472.84
2019-04-28T22:42:54.926Z,97480.05
2019-04-28T22:47:58.311Z,97475.08
2019-04-28T22:53:01.696Z,97475.03
2019-04-28T22:58:06.730Z,97476.51
2019-04-28T23:03:18.636Z,97474.28
2019-04-28T23:08:22.272Z,97470.85
2019-04-28T23:13:25.651Z,97472.67
2019-04-28T23:18:29.252Z,97462.64
2019-04-28T23:23:32.826Z,97459.52
2019-04-28T23:28:36.554Z,97467.59
2019-04-28T23:33:39.942Z,97454.07
2019-04-28T23:38:43.566Z,97465.65
2019-04-28T23:43:46.944Z,97457.08
2019-04-28T23:48:50.400Z,97459.91
2019-04-28T23:53:58.530Z,97459.92
2019-04-28T23:59:01.921Z,97462.27
